sensor_id;sensor_type;location;lat;lon;timestamp;temperature;humidity
20833;DHT22;56075;51.264;7.150;2022-10-16T00:00:23;22.40;97.90
20833;DHT22;56075;51.264;7.150;2022-10-16T00:02:54;22.20;97.80
20833;DHT22;56075;51.264;7.150;2022-10-16T00:05:26;22.40;98.00
20833;DHT22;56075;51.264;7.150;2022-10-16T00:07:57;22.80;98.00
20833;DHT22;56075;51.264;7.150;2022-10-16T00:10:28;22.40;98.00
20833;DHT22;56075;51.264;7.150;2022-10-16T00:12:59;22.40;98.00
20833;DHT22;56075;51.264;7.150;2022-10-16T00:15:36;22.40;97.80
20833;DHT22;56075;51.264;7.150;2022-10-16T00:18:07;22.10;97.90
20833;DHT22;56075;51.264;7.150;2022-10-16T00:20:38;22.40;97.90
20833;DHT22;56075;51.264;7.150;2022-10-16T00:23:09;22.70;98.00
20833;DHT22;56075;51.264;7.150;2022-10-16T00:25:41;23.50;98.40
20833;DHT22;56075;51.264;7.150;2022-10-16T00:28:12;22.30;98.00
20833;DHT22;56075;51.264;7.150;2022-10-16T00:30:43;22.30;97.90
20833;DHT22;56075;51.264;7.150;2022-10-16T00:33:14;22.50;98.00
20833;DHT22;56075;51.264;7.150;2022-10-16T00:35:46;23.90;98.40
20833;DHT22;56075;51.264;7.150;2022-10-16T00:38:17;22.30;98.00
20833;DHT22;56075;51.264;7.150;2022-10-16T00:40:48;22.30;98.10
20833;DHT22;56075;51.264;7.150;2022-10-16T00:43:36;23.20;98.30
20833;DHT22;56075;51.264;7.150;2022-10-16T00:48:51;22.40;98.00
20833;DHT22;56075;51.264;7.150;2022-10-16T00:51:31;22.30;97.70
20833;DHT22;56075;51.264;7.150;2022-10-16T00:54:07;23.70;98.40
20833;DHT22;56075;51.264;7.150;2022-10-16T00:56:39;20.50;97.50
20833;DHT22;56075;51.264;7.150;2022-10-16T00:59:18;24.20;98.60
20833;DHT22;56075;51.264;7.150;2022-10-16T01:01:50;23.60;98.40
20833;DHT22;56075;51.264;7.150;2022-10-16T01:04:22;22.40;98.10
20833;DHT22;56075;51.264;7.150;2022-10-16T01:07:36;22.20;98.10
20833;DHT22;56075;51.264;7.150;2022-10-16T01:10:36;22.20;98.10
20833;DHT22;56075;51.264;7.150;2022-10-16T01:13:17;22.20;97.80
20833;DHT22;56075;51.264;7.150;2022-10-16T01:19:10;22.10;97.80
20833;DHT22;56075;51.264;7.150;2022-10-16T01:21:44;22.20;97.80
20833;DHT22;56075;51.264;7.150;2022-10-16T01:24:39;22.90;98.40
20833;DHT22;56075;51.264;7.150;2022-10-16T01:27:16;22.20;97.90
20833;DHT22;56075;51.264;7.150;2022-10-16T01:30:10;21.90;98.10
20833;DHT22;56075;51.264;7.150;2022-10-16T01:32:49;22.30;97.90
20833;DHT22;56075;51.264;7.150;2022-10-16T01:35:32;22.20;98.20
20833;DHT22;56075;51.264;7.150;2022-10-16T01:38:12;22.10;98.20
20833;DHT22;56075;51.264;7.150;2022-10-16T01:40:49;22.30;97.90
20833;DHT22;56075;51.264;7.150;2022-10-16T01:43:28;22.30;98.30
20833;DHT22;56075;51.264;7.150;2022-10-16T01:46:01;22.00;98.20
20833;DHT22;56075;51.264;7.150;2022-10-16T01:48:34;22.20;98.20
20833;DHT22;56075;51.264;7.150;2022-10-16T01:51:10;22.30;98.30
20833;DHT22;56075;51.264;7.150;2022-10-16T01:53:46;22.60;98.40
20833;DHT22;56075;51.264;7.150;2022-10-16T01:56:18;23.60;98.60
20833;DHT22;56075;51.264;7.150;2022-10-16T01:59:06;23.10;98.50
20833;DHT22;56075;51.264;7.150;2022-10-16T02:01:40;22.20;98.20
20833;DHT22;56075;51.264;7.150;2022-10-16T02:04:29;22.30;98.30
20833;DHT22;56075;51.264;7.150;2022-10-16T02:07:01;22.20;98.30
20833;DHT22;56075;51.264;7.150;2022-10-16T02:09:33;22.30;98.20
20833;DHT22;56075;51.264;7.150;2022-10-16T02:12:22;22.30;98.30
20833;DHT22;56075;51.264;7.150;2022-10-16T02:14:54;22.30;98.00
20833;DHT22;56075;51.264;7.150;2022-10-16T02:17:26;22.30;98.30
20833;DHT22;56075;51.264;7.150;2022-10-16T02:19:58;22.20;98.30
20833;DHT22;56075;51.264;7.150;2022-10-16T02:22:36;22.20;98.30
20833;DHT22;56075;51.264;7.150;2022-10-16T02:25:17;22.20;98.30
20833;DHT22;56075;51.264;7.150;2022-10-16T02:28:14;23.60;98.70
20833;DHT22;56075;51.264;7.150;2022-10-16T02:30:58;22.30;98.30
20833;DHT22;56075;51.264;7.150;2022-10-16T02:33:31;22.20;98.30
20833;DHT22;56075;51.264;7.150;2022-10-16T02:36:03;22.80;98.50
20833;DHT22;56075;51.264;7.150;2022-10-16T02:38:34;22.20;98.30
20833;DHT22;56075;51.264;7.150;2022-10-16T02:41:07;21.80;98.20
20833;DHT22;56075;51.264;7.150;2022-10-16T02:43:39;22.30;98.40
20833;DHT22;56075;51.264;7.150;2022-10-16T02:46:10;22.80;98.40
20833;DHT22;56075;51.264;7.150;2022-10-16T02:48:42;22.10;98.30
20833;DHT22;56075;51.264;7.150;2022-10-16T02:51:13;22.50;98.30
20833;DHT22;56075;51.264;7.150;2022-10-16T02:53:44;22.20;98.30
20833;DHT22;56075;51.264;7.150;2022-10-16T02:56:15;22.30;98.30
20833;DHT22;56075;51.264;7.150;2022-10-16T02:58:46;22.30;98.30
20833;DHT22;56075;51.264;7.150;2022-10-16T03:01:17;22.80;98.40
20833;DHT22;56075;51.264;7.150;2022-10-16T03:03:49;22.20;98.30
20833;DHT22;56075;51.264;7.150;2022-10-16T03:06:20;23.30;98.60
20833;DHT22;56075;51.264;7.150;2022-10-16T03:08:51;22.30;98.20
20833;DHT22;56075;51.264;7.150;2022-10-16T03:11:22;22.20;98.30
20833;DHT22;56075;51.264;7.150;2022-10-16T03:13:53;22.20;98.20
20833;DHT22;56075;51.264;7.150;2022-10-16T03:16:24;22.30;98.30
20833;DHT22;56075;51.264;7.150;2022-10-16T03:18:55;22.30;98.30
20833;DHT22;56075;51.264;7.150;2022-10-16T03:21:27;22.40;98.30
20833;DHT22;56075;51.264;7.150;2022-10-16T03:23:58;23.70;98.70
20833;DHT22;56075;51.264;7.150;2022-10-16T03:26:29;22.50;98.40
20833;DHT22;56075;51.264;7.150;2022-10-16T03:29:00;22.80;98.50
20833;DHT22;56075;51.264;7.150;2022-10-16T03:31:33;22.10;98.40
20833;DHT22;56075;51.264;7.150;2022-10-16T03:34:04;22.30;98.30
20833;DHT22;56075;51.264;7.150;2022-10-16T03:36:35;22.10;98.20
20833;DHT22;56075;51.264;7.150;2022-10-16T03:39:07;22.20;98.30
20833;DHT22;56075;51.264;7.150;2022-10-16T03:41:38;23.50;98.60
20833;DHT22;56075;51.264;7.150;2022-10-16T03:44:09;22.20;98.30
20833;DHT22;56075;51.264;7.150;2022-10-16T03:46:40;22.30;98.30
20833;DHT22;56075;51.264;7.150;2022-10-16T03:49:11;22.40;98.30
20833;DHT22;56075;51.264;7.150;2022-10-16T03:51:42;22.20;98.20
20833;DHT22;56075;51.264;7.150;2022-10-16T03:54:14;22.10;98.20
20833;DHT22;56075;51.264;7.150;2022-10-16T03:56:45;23.30;98.40
20833;DHT22;56075;51.264;7.150;2022-10-16T03:59:16;22.30;98.20
20833;DHT22;56075;51.264;7.150;2022-10-16T04:01:47;23.00;98.50
20833;DHT22;56075;51.264;7.150;2022-10-16T04:04:19;22.20;98.20
20833;DHT22;56075;51.264;7.150;2022-10-16T04:06:50;22.30;98.20
20833;DHT22;56075;51.264;7.150;2022-10-16T04:09:21;22.20;98.20
20833;DHT22;56075;51.264;7.150;2022-10-16T04:11:52;22.30;98.20
20833;DHT22;56075;51.264;7.150;2022-10-16T04:14:23;22.40;98.20
20833;DHT22;56075;51.264;7.150;2022-10-16T04:16:54;22.30;98.20
20833;DHT22;56075;51.264;7.150;2022-10-16T04:19:25;22.30;98.20
20833;DHT22;56075;51.264;7.150;2022-10-16T04:21:57;22.20;98.20
20833;DHT22;56075;51.264;7.150;2022-10-16T04:24:28;22.30;98.20
20833;DHT22;56075;51.264;7.150;2022-10-16T04:26:59;22.40;98.20
20833;DHT22;56075;51.264;7.150;2022-10-16T04:29:30;22.30;98.20
20833;DHT22;56075;51.264;7.150;2022-10-16T04:32:02;22.40;98.20
20833;DHT22;56075;51.264;7.150;2022-10-16T04:34:33;22.30;98.20
20833;DHT22;56075;51.264;7.150;2022-10-16T04:37:04;22.40;98.20
20833;DHT22;56075;51.264;7.150;2022-10-16T04:39:35;22.20;98.20
20833;DHT22;56075;51.264;7.150;2022-10-16T04:42:06;22.30;98.20
20833;DHT22;56075;51.264;7.150;2022-10-16T04:44:37;22.30;98.20
20833;DHT22;56075;51.264;7.150;2022-10-16T04:47:08;22.30;98.20
20833;DHT22;56075;51.264;7.150;2022-10-16T04:49:40;23.10;98.50
20833;DHT22;56075;51.264;7.150;2022-10-16T04:52:11;22.20;98.20
20833;DHT22;56075;51.264;7.150;2022-10-16T04:54:42;22.70;98.40
20833;DHT22;56075;51.264;7.150;2022-10-16T04:57:15;22.00;98.20
20833;DHT22;56075;51.264;7.150;2022-10-16T04:59:46;23.60;98.60
20833;DHT22;56075;51.264;7.150;2022-10-16T05:02:17;22.30;98.20
20833;DHT22;56075;51.264;7.150;2022-10-16T05:04:49;22.10;98.20
20833;DHT22;56075;51.264;7.150;2022-10-16T05:07:20;24.30;98.80
20833;DHT22;56075;51.264;7.150;2022-10-16T05:09:51;23.90;98.70
20833;DHT22;56075;51.264;7.150;2022-10-16T05:12:22;22.10;98.20
20833;DHT22;56075;51.264;7.150;2022-10-16T05:14:53;22.20;98.20
20833;DHT22;56075;51.264;7.150;2022-10-16T05:17:29;23.10;98.60
20833;DHT22;56075;51.264;7.150;2022-10-16T05:20:00;22.30;98.30
20833;DHT22;56075;51.264;7.150;2022-10-16T05:22:31;24.10;98.70
20833;DHT22;56075;51.264;7.150;2022-10-16T05:25:02;22.60;98.30
20833;DHT22;56075;51.264;7.150;2022-10-16T05:27:33;22.20;98.30
20833;DHT22;56075;51.264;7.150;2022-10-16T05:30:05;22.20;98.20
20833;DHT22;56075;51.264;7.150;2022-10-16T05:32:36;22.20;98.20
20833;DHT22;56075;51.264;7.150;2022-10-16T05:35:08;22.20;98.20
20833;DHT22;56075;51.264;7.150;2022-10-16T05:37:39;22.50;98.30
20833;DHT22;56075;51.264;7.150;2022-10-16T05:40:11;23.60;98.50
20833;DHT22;56075;51.264;7.150;2022-10-16T05:42:42;22.20;98.20
20833;DHT22;56075;51.264;7.150;2022-10-16T05:45:13;22.00;98.10
20833;DHT22;56075;51.264;7.150;2022-10-16T05:47:44;22.20;98.20
20833;DHT22;56075;51.264;7.150;2022-10-16T05:50:15;22.20;98.20
20833;DHT22;56075;51.264;7.150;2022-10-16T05:52:47;23.50;98.60
20833;DHT22;56075;51.264;7.150;2022-10-16T05:55:18;22.50;98.30
20833;DHT22;56075;51.264;7.150;2022-10-16T05:57:49;22.20;98.30
20833;DHT22;56075;51.264;7.150;2022-10-16T06:00:20;23.30;98.50
20833;DHT22;56075;51.264;7.150;2022-10-16T06:02:51;22.20;98.20
20833;DHT22;56075;51.264;7.150;2022-10-16T06:05:22;23.70;98.60
20833;DHT22;56075;51.264;7.150;2022-10-16T06:07:53;22.30;98.20
20833;DHT22;56075;51.264;7.150;2022-10-16T06:10:25;22.30;98.20
20833;DHT22;56075;51.264;7.150;2022-10-16T06:12:56;24.20;98.70
20833;DHT22;56075;51.264;7.150;2022-10-16T06:15:27;22.20;98.10
20833;DHT22;56075;51.264;7.150;2022-10-16T06:17:58;22.30;98.20
20833;DHT22;56075;51.264;7.150;2022-10-16T06:20:29;22.10;98.10
20833;DHT22;56075;51.264;7.150;2022-10-16T06:23:00;22.40;98.10
20833;DHT22;56075;51.264;7.150;2022-10-16T06:25:32;21.90;97.80
20833;DHT22;56075;51.264;7.150;2022-10-16T06:28:03;22.00;98.10
20833;DHT22;56075;51.264;7.150;2022-10-16T06:30:34;22.30;98.50
20833;DHT22;56075;51.264;7.150;2022-10-16T06:33:05;23.10;98.30
20833;DHT22;56075;51.264;7.150;2022-10-16T06:35:36;23.00;98.40
20833;DHT22;56075;51.264;7.150;2022-10-16T06:38:08;22.20;98.20
20833;DHT22;56075;51.264;7.150;2022-10-16T06:40:39;22.40;98.20
20833;DHT22;56075;51.264;7.150;2022-10-16T06:43:10;21.90;98.20
20833;DHT22;56075;51.264;7.150;2022-10-16T06:45:41;22.20;98.20
20833;DHT22;56075;51.264;7.150;2022-10-16T06:48:12;24.30;98.70
20833;DHT22;56075;51.264;7.150;2022-10-16T06:50:43;22.20;98.20
20833;DHT22;56075;51.264;7.150;2022-10-16T06:53:14;22.30;98.30
20833;DHT22;56075;51.264;7.150;2022-10-16T06:55:45;23.80;98.60
20833;DHT22;56075;51.264;7.150;2022-10-16T06:58:16;23.00;98.40
20833;DHT22;56075;51.264;7.150;2022-10-16T07:00:48;22.10;98.20
20833;DHT22;56075;51.264;7.150;2022-10-16T07:03:19;22.40;98.30
20833;DHT22;56075;51.264;7.150;2022-10-16T07:05:51;22.40;98.10
20833;DHT22;56075;51.264;7.150;2022-10-16T07:08:22;22.20;98.20
20833;DHT22;56075;51.264;7.150;2022-10-16T07:11:01;22.10;98.10
20833;DHT22;56075;51.264;7.150;2022-10-16T07:13:36;23.20;98.50
20833;DHT22;56075;51.264;7.150;2022-10-16T07:16:09;23.60;98.60
20833;DHT22;56075;51.264;7.150;2022-10-16T07:18:42;22.20;98.20
20833;DHT22;56075;51.264;7.150;2022-10-16T07:21:16;22.50;98.40
20833;DHT22;56075;51.264;7.150;2022-10-16T07:23:52;22.40;98.30
20833;DHT22;56075;51.264;7.150;2022-10-16T07:26:24;22.20;98.40
20833;DHT22;56075;51.264;7.150;2022-10-16T07:28:56;23.30;98.80
20833;DHT22;56075;51.264;7.150;2022-10-16T07:31:28;22.40;98.50
20833;DHT22;56075;51.264;7.150;2022-10-16T07:33:59;22.50;98.40
20833;DHT22;56075;51.264;7.150;2022-10-16T07:36:32;22.20;98.00
20833;DHT22;56075;51.264;7.150;2022-10-16T07:39:03;22.50;98.20
20833;DHT22;56075;51.264;7.150;2022-10-16T07:41:35;22.40;98.10
20833;DHT22;56075;51.264;7.150;2022-10-16T07:44:07;22.50;98.10
20833;DHT22;56075;51.264;7.150;2022-10-16T07:46:39;22.30;98.00
20833;DHT22;56075;51.264;7.150;2022-10-16T07:49:10;22.50;98.00
20833;DHT22;56075;51.264;7.150;2022-10-16T07:51:41;22.30;98.00
20833;DHT22;56075;51.264;7.150;2022-10-16T07:54:12;22.40;97.90
20833;DHT22;56075;51.264;7.150;2022-10-16T07:56:43;22.50;98.00
20833;DHT22;56075;51.264;7.150;2022-10-16T07:59:15;22.70;98.00
20833;DHT22;56075;51.264;7.150;2022-10-16T08:01:46;23.80;98.30
20833;DHT22;56075;51.264;7.150;2022-10-16T08:04:17;24.30;98.40
20833;DHT22;56075;51.264;7.150;2022-10-16T08:06:48;22.60;97.90
20833;DHT22;56075;51.264;7.150;2022-10-16T08:09:20;23.60;98.30
20833;DHT22;56075;51.264;7.150;2022-10-16T08:11:51;23.10;98.00
20833;DHT22;56075;51.264;7.150;2022-10-16T08:17:00;22.30;98.40
20833;DHT22;56075;51.264;7.150;2022-10-16T08:19:33;21.10;97.70
20833;DHT22;56075;51.264;7.150;2022-10-16T08:22:05;20.00;98.50
20833;DHT22;56075;51.264;7.150;2022-10-16T08:24:36;19.40;99.00
20833;DHT22;56075;51.264;7.150;2022-10-16T08:27:08;18.70;99.40
20833;DHT22;56075;51.264;7.150;2022-10-16T08:29:40;17.90;99.90
20833;DHT22;56075;51.264;7.150;2022-10-16T08:32:11;17.70;99.90
20833;DHT22;56075;51.264;7.150;2022-10-16T08:34:42;17.30;99.90
20833;DHT22;56075;51.264;7.150;2022-10-16T08:37:14;17.00;99.90
20833;DHT22;56075;51.264;7.150;2022-10-16T08:39:45;16.70;99.90
20833;DHT22;56075;51.264;7.150;2022-10-16T08:45:28;16.20;99.90
20833;DHT22;56075;51.264;7.150;2022-10-16T08:50:55;16.10;99.90
20833;DHT22;56075;51.264;7.150;2022-10-16T08:53:46;16.10;99.90
20833;DHT22;56075;51.264;7.150;2022-10-16T08:56:20;16.00;99.90
20833;DHT22;56075;51.264;7.150;2022-10-16T08:58:52;16.00;99.90
20833;DHT22;56075;51.264;7.150;2022-10-16T09:01:32;16.00;99.90
20833;DHT22;56075;51.264;7.150;2022-10-16T09:07:00;15.90;99.90
20833;DHT22;56075;51.264;7.150;2022-10-16T09:12:31;16.00;99.90
20833;DHT22;56075;51.264;7.150;2022-10-16T09:15:43;16.10;99.90
20833;DHT22;56075;51.264;7.150;2022-10-16T09:18:22;16.10;99.90
20833;DHT22;56075;51.264;7.150;2022-10-16T09:23:37;16.30;99.90
20833;DHT22;56075;51.264;7.150;2022-10-16T09:26:12;16.20;99.90
20833;DHT22;56075;51.264;7.150;2022-10-16T09:28:43;16.50;99.90
20833;DHT22;56075;51.264;7.150;2022-10-16T09:31:20;17.30;99.90
20833;DHT22;56075;51.264;7.150;2022-10-16T09:33:55;16.60;99.90
20833;DHT22;56075;51.264;7.150;2022-10-16T09:36:29;16.80;99.90
20833;DHT22;56075;51.264;7.150;2022-10-16T09:39:06;16.50;99.90
20833;DHT22;56075;51.264;7.150;2022-10-16T09:41:42;16.60;99.90
20833;DHT22;56075;51.264;7.150;2022-10-16T09:47:15;16.70;99.90
20833;DHT22;56075;51.264;7.150;2022-10-16T09:49:56;16.90;99.90
20833;DHT22;56075;51.264;7.150;2022-10-16T09:52:31;17.00;99.90
20833;DHT22;56075;51.264;7.150;2022-10-16T09:55:13;17.30;99.90
20833;DHT22;56075;51.264;7.150;2022-10-16T09:57:52;16.80;99.90
20833;DHT22;56075;51.264;7.150;2022-10-16T10:00:24;17.30;99.90
20833;DHT22;56075;51.264;7.150;2022-10-16T10:02:56;17.00;99.90
20833;DHT22;56075;51.264;7.150;2022-10-16T10:05:29;17.10;99.90
20833;DHT22;56075;51.264;7.150;2022-10-16T10:08:02;17.10;99.90
20833;DHT22;56075;51.264;7.150;2022-10-16T10:10:41;17.00;99.90
20833;DHT22;56075;51.264;7.150;2022-10-16T10:13:20;17.10;99.90
20833;DHT22;56075;51.264;7.150;2022-10-16T10:15:54;17.30;99.90
20833;DHT22;56075;51.264;7.150;2022-10-16T10:18:25;17.40;99.90
20833;DHT22;56075;51.264;7.150;2022-10-16T10:21:02;17.30;99.90
20833;DHT22;56075;51.264;7.150;2022-10-16T10:23:33;17.10;99.90
20833;DHT22;56075;51.264;7.150;2022-10-16T10:26:22;17.30;99.90
20833;DHT22;56075;51.264;7.150;2022-10-16T10:34:57;17.20;99.90
20833;DHT22;56075;51.264;7.150;2022-10-16T10:58:54;17.30;99.90
20833;DHT22;56075;51.264;7.150;2022-10-16T11:01:14;17.40;99.90
20833;DHT22;56075;51.264;7.150;2022-10-16T11:06:43;17.60;99.90
20833;DHT22;56075;51.264;7.150;2022-10-16T11:09:24;17.70;99.90
20833;DHT22;56075;51.264;7.150;2022-10-16T11:12:18;17.60;99.40
20833;DHT22;56075;51.264;7.150;2022-10-16T11:15:29;17.80;99.40
20833;DHT22;56075;51.264;7.150;2022-10-16T11:18:08;17.70;99.10
20833;DHT22;56075;51.264;7.150;2022-10-16T11:20:59;17.60;99.50
20833;DHT22;56075;51.264;7.150;2022-10-16T11:23:44;17.60;99.40
20833;DHT22;56075;51.264;7.150;2022-10-16T11:26:41;17.80;99.40
20833;DHT22;56075;51.264;7.150;2022-10-16T11:29:20;19.40;99.90
20833;DHT22;56075;51.264;7.150;2022-10-16T11:31:58;18.00;99.30
20833;DHT22;56075;51.264;7.150;2022-10-16T11:34:38;17.90;99.30
20833;DHT22;56075;51.264;7.150;2022-10-16T11:37:26;19.10;99.60
20833;DHT22;56075;51.264;7.150;2022-10-16T11:40:05;18.10;98.80
20833;DHT22;56075;51.264;7.150;2022-10-16T11:42:50;18.10;99.00
20833;DHT22;56075;51.264;7.150;2022-10-16T11:45:40;19.00;99.00
20833;DHT22;56075;51.264;7.150;2022-10-16T11:51:19;18.70;98.80
20833;DHT22;56075;51.264;7.150;2022-10-16T11:56:41;18.30;98.10
20833;DHT22;56075;51.264;7.150;2022-10-16T11:59:35;18.30;98.40
20833;DHT22;56075;51.264;7.150;2022-10-16T12:08:20;18.20;97.80
20833;DHT22;56075;51.264;7.150;2022-10-16T12:10:52;18.30;98.20
20833;DHT22;56075;51.264;7.150;2022-10-16T12:13:38;18.10;98.10
20833;DHT22;56075;51.264;7.150;2022-10-16T12:18:45;18.50;98.00
20833;DHT22;56075;51.264;7.150;2022-10-16T12:21:17;19.50;98.30
20833;DHT22;56075;51.264;7.150;2022-10-16T12:23:52;18.60;98.00
20833;DHT22;56075;51.264;7.150;2022-10-16T12:26:37;19.70;98.10
20833;DHT22;56075;51.264;7.150;2022-10-16T12:29:23;19.10;97.60
20833;DHT22;56075;51.264;7.150;2022-10-16T12:31:59;21.20;98.00
20833;DHT22;56075;51.264;7.150;2022-10-16T12:34:41;18.90;97.30
20833;DHT22;56075;51.264;7.150;2022-10-16T12:37:23;19.10;97.20
20833;DHT22;56075;51.264;7.150;2022-10-16T12:39:56;19.30;97.30
20833;DHT22;56075;51.264;7.150;2022-10-16T12:45:01;20.20;97.60
20833;DHT22;56075;51.264;7.150;2022-10-16T12:50:21;19.40;96.80
20833;DHT22;56075;51.264;7.150;2022-10-16T12:52:54;19.30;96.60
20833;DHT22;56075;51.264;7.150;2022-10-16T12:55:26;20.70;96.50
20833;DHT22;56075;51.264;7.150;2022-10-16T13:00:57;19.50;95.20
20833;DHT22;56075;51.264;7.150;2022-10-16T13:06:35;19.80;95.10
20833;DHT22;56075;51.264;7.150;2022-10-16T13:17:37;19.60;95.30
20833;DHT22;56075;51.264;7.150;2022-10-16T13:26:05;19.30;95.60
20833;DHT22;56075;51.264;7.150;2022-10-16T13:28:39;19.40;95.70
20833;DHT22;56075;51.264;7.150;2022-10-16T13:31:17;19.90;96.10
20833;DHT22;56075;51.264;7.150;2022-10-16T13:33:55;19.80;95.80
20833;DHT22;56075;51.264;7.150;2022-10-16T13:36:29;21.10;95.90
20833;DHT22;56075;51.264;7.150;2022-10-16T13:39:10;20.30;95.50
20833;DHT22;56075;51.264;7.150;2022-10-16T13:41:43;21.50;95.60
20833;DHT22;56075;51.264;7.150;2022-10-16T13:44:18;20.10;95.10
20833;DHT22;56075;51.264;7.150;2022-10-16T13:47:02;20.80;95.20
20833;DHT22;56075;51.264;7.150;2022-10-16T13:49:33;20.80;94.70
20833;DHT22;56075;51.264;7.150;2022-10-16T13:52:05;21.00;94.40
20833;DHT22;56075;51.264;7.150;2022-10-16T13:54:36;21.40;94.10
20833;DHT22;56075;51.264;7.150;2022-10-16T13:57:07;21.80;93.80
20833;DHT22;56075;51.264;7.150;2022-10-16T13:59:38;22.40;93.00
20833;DHT22;56075;51.264;7.150;2022-10-16T14:02:25;23.50;92.10
20833;DHT22;56075;51.264;7.150;2022-10-16T14:04:57;24.20;90.80
20833;DHT22;56075;51.264;7.150;2022-10-16T14:07:31;24.20;89.90
20833;DHT22;56075;51.264;7.150;2022-10-16T14:13:00;24.30;86.70
20833;DHT22;56075;51.264;7.150;2022-10-16T14:15:34;24.60;86.30
20833;DHT22;56075;51.264;7.150;2022-10-16T14:18:05;23.40;84.90
20833;DHT22;56075;51.264;7.150;2022-10-16T14:20:37;24.70;85.20
20833;DHT22;56075;51.264;7.150;2022-10-16T14:23:23;24.20;85.40
20833;DHT22;56075;51.264;7.150;2022-10-16T14:28:39;23.10;86.30
20833;DHT22;56075;51.264;7.150;2022-10-16T14:31:30;23.30;88.70
20833;DHT22;56075;51.264;7.150;2022-10-16T14:34:02;22.40;89.30
20833;DHT22;56075;51.264;7.150;2022-10-16T14:36:33;22.30;90.40
20833;DHT22;56075;51.264;7.150;2022-10-16T14:39:13;22.10;90.20
20833;DHT22;56075;51.264;7.150;2022-10-16T14:41:50;21.90;90.30
20833;DHT22;56075;51.264;7.150;2022-10-16T14:44:28;21.90;90.50
20833;DHT22;56075;51.264;7.150;2022-10-16T14:47:13;21.60;90.50
20833;DHT22;56075;51.264;7.150;2022-10-16T14:49:45;21.40;90.80
20833;DHT22;56075;51.264;7.150;2022-10-16T14:52:16;21.50;91.20
20833;DHT22;56075;51.264;7.150;2022-10-16T14:54:50;21.10;91.50
20833;DHT22;56075;51.264;7.150;2022-10-16T14:57:27;21.00;91.60
20833;DHT22;56075;51.264;7.150;2022-10-16T14:59:59;21.00;91.60
20833;DHT22;56075;51.264;7.150;2022-10-16T15:02:32;22.30;92.10
20833;DHT22;56075;51.264;7.150;2022-10-16T15:05:26;21.00;91.80
20833;DHT22;56075;51.264;7.150;2022-10-16T15:07:57;21.00;92.00
20833;DHT22;56075;51.264;7.150;2022-10-16T15:10:28;20.90;92.10
20833;DHT22;56075;51.264;7.150;2022-10-16T15:13:01;20.80;92.30
20833;DHT22;56075;51.264;7.150;2022-10-16T15:15:35;20.80;92.40
20833;DHT22;56075;51.264;7.150;2022-10-16T15:18:07;20.60;92.60
20833;DHT22;56075;51.264;7.150;2022-10-16T15:20:39;20.70;92.60
20833;DHT22;56075;51.264;7.150;2022-10-16T15:23:22;20.40;92.70
20833;DHT22;56075;51.264;7.150;2022-10-16T15:25:55;20.60;93.00
20833;DHT22;56075;51.264;7.150;2022-10-16T15:28:26;20.20;93.00
20833;DHT22;56075;51.264;7.150;2022-10-16T15:30:57;21.00;93.50
20833;DHT22;56075;51.264;7.150;2022-10-16T15:33:28;20.10;93.40
20833;DHT22;56075;51.264;7.150;2022-10-16T15:36:03;19.90;93.50
20833;DHT22;56075;51.264;7.150;2022-10-16T15:38:35;20.00;93.60
20833;DHT22;56075;51.264;7.150;2022-10-16T15:41:06;19.80;93.70
20833;DHT22;56075;51.264;7.150;2022-10-16T15:43:38;20.30;93.80
20833;DHT22;56075;51.264;7.150;2022-10-16T15:46:11;19.90;94.10
20833;DHT22;56075;51.264;7.150;2022-10-16T15:48:45;19.80;94.30
20833;DHT22;56075;51.264;7.150;2022-10-16T15:51:17;19.80;94.60
20833;DHT22;56075;51.264;7.150;2022-10-16T15:53:49;21.30;95.20
20833;DHT22;56075;51.264;7.150;2022-10-16T15:56:21;19.60;94.90
20833;DHT22;56075;51.264;7.150;2022-10-16T15:58:53;19.70;95.40
20833;DHT22;56075;51.264;7.150;2022-10-16T16:01:25;19.20;95.40
20833;DHT22;56075;51.264;7.150;2022-10-16T16:03:56;19.40;95.80
20833;DHT22;56075;51.264;7.150;2022-10-16T16:06:28;19.70;96.20
20833;DHT22;56075;51.264;7.150;2022-10-16T16:09:00;19.30;96.30
20833;DHT22;56075;51.264;7.150;2022-10-16T16:11:34;18.80;96.20
20833;DHT22;56075;51.264;7.150;2022-10-16T16:14:12;19.10;96.80
20833;DHT22;56075;51.264;7.150;2022-10-16T16:16:44;19.00;97.00
20833;DHT22;56075;51.264;7.150;2022-10-16T16:19:15;19.20;97.10
20833;DHT22;56075;51.264;7.150;2022-10-16T16:21:49;18.80;97.20
20833;DHT22;56075;51.264;7.150;2022-10-16T16:24:20;18.90;97.40
20833;DHT22;56075;51.264;7.150;2022-10-16T16:26:51;20.20;97.90
20833;DHT22;56075;51.264;7.150;2022-10-16T16:29:22;20.30;98.00
20833;DHT22;56075;51.264;7.150;2022-10-16T16:31:53;18.60;97.80
20833;DHT22;56075;51.264;7.150;2022-10-16T16:34:28;18.50;98.00
20833;DHT22;56075;51.264;7.150;2022-10-16T16:36:59;18.50;98.10
20833;DHT22;56075;51.264;7.150;2022-10-16T16:39:30;18.70;98.30
20833;DHT22;56075;51.264;7.150;2022-10-16T16:42:01;18.40;98.20
20833;DHT22;56075;51.264;7.150;2022-10-16T16:44:35;18.40;98.50
20833;DHT22;56075;51.264;7.150;2022-10-16T16:47:07;18.10;98.60
20833;DHT22;56075;51.264;7.150;2022-10-16T16:49:38;18.30;98.60
20833;DHT22;56075;51.264;7.150;2022-10-16T16:52:11;19.70;99.30
20833;DHT22;56075;51.264;7.150;2022-10-16T16:54:43;18.30;99.10
20833;DHT22;56075;51.264;7.150;2022-10-16T16:57:15;19.00;99.40
20833;DHT22;56075;51.264;7.150;2022-10-16T16:59:46;18.10;99.20
20833;DHT22;56075;51.264;7.150;2022-10-16T17:02:20;18.10;99.50
20833;DHT22;56075;51.264;7.150;2022-10-16T17:04:51;18.10;99.60
20833;DHT22;56075;51.264;7.150;2022-10-16T17:07:23;18.10;99.70
20833;DHT22;56075;51.264;7.150;2022-10-16T17:09:56;17.70;99.90
20833;DHT22;56075;51.264;7.150;2022-10-16T17:12:28;17.90;99.80
20833;DHT22;56075;51.264;7.150;2022-10-16T17:15:00;18.10;99.90
20833;DHT22;56075;51.264;7.150;2022-10-16T17:17:32;18.10;99.90
20833;DHT22;56075;51.264;7.150;2022-10-16T17:20:03;18.10;99.90
20833;DHT22;56075;51.264;7.150;2022-10-16T17:22:35;18.00;99.90
20833;DHT22;56075;51.264;7.150;2022-10-16T17:25:06;17.90;99.90
20833;DHT22;56075;51.264;7.150;2022-10-16T17:27:38;18.10;99.90
20833;DHT22;56075;51.264;7.150;2022-10-16T17:30:09;18.60;99.90
20833;DHT22;56075;51.264;7.150;2022-10-16T17:32:40;19.70;99.90
20833;DHT22;56075;51.264;7.150;2022-10-16T17:35:11;17.40;99.90
20833;DHT22;56075;51.264;7.150;2022-10-16T17:37:42;17.70;99.90
20833;DHT22;56075;51.264;7.150;2022-10-16T17:40:14;17.80;99.90
20833;DHT22;56075;51.264;7.150;2022-10-16T17:42:45;17.70;99.90
20833;DHT22;56075;51.264;7.150;2022-10-16T17:45:18;17.80;99.90
20833;DHT22;56075;51.264;7.150;2022-10-16T17:47:49;19.10;99.90
20833;DHT22;56075;51.264;7.150;2022-10-16T17:50:20;17.70;99.90
20833;DHT22;56075;51.264;7.150;2022-10-16T17:52:51;17.90;99.90
20833;DHT22;56075;51.264;7.150;2022-10-16T17:55:22;18.10;99.90